createdAt,value
2023-05-21T00:01:09.505Z,7.30
2023-05-21T00:03:36.864Z,8.73
2023-05-21T00:06:04.269Z,7.28
2023-05-21T00:08:31.595Z,8.38
2023-05-21T00:10:58.777Z,8.10
2023-05-21T00:13:26.063Z,7.28
2023-05-21T00:15:53.361Z,10.30
2023-05-21T00:18:22.229Z,7.88
2023-05-21T00:20:49.590Z,8.18
2023-05-21T00:23:18.621Z,8.13
2023-05-21T00:25:46.754Z,7.78
2023-05-21T00:28:14.355Z,9.20
2023-05-21T00:30:43.125Z,9.00
2023-05-21T00:33:10.594Z,7.70
2023-05-21T00:35:37.953Z,9.95
2023-05-21T00:38:07.348Z,9.75
2023-05-21T00:40:35.548Z,8.68
2023-05-21T00:43:03.695Z,9.77
2023-05-21T00:45:31.217Z,8.77
2023-05-21T00:47:58.551Z,8.07
2023-05-21T00:50:29.543Z,9.32
2023-05-21T00:52:56.913Z,8.50
2023-05-21T00:55:24.116Z,9.13
2023-05-21T00:57:51.388Z,8.35
2023-05-21T01:00:18.725Z,8.80
2023-05-21T01:02:46.499Z,8.70
2023-05-21T01:05:15.428Z,9.07
2023-05-21T01:07:43.393Z,11.27
2023-05-21T01:10:11.623Z,10.02
2023-05-21T01:12:40.029Z,8.80
2023-05-21T01:15:07.749Z,8.45
2023-05-21T01:17:35.628Z,9.40
2023-05-21T01:20:10.015Z,10.32
2023-05-21T01:22:43.978Z,9.25
2023-05-21T01:25:15.086Z,9.18
2023-05-21T01:27:42.528Z,9.55
2023-05-21T01:30:11.059Z,10.88
2023-05-21T01:32:57.468Z,9.93
2023-05-21T01:35:30.756Z,9.68
2023-05-21T01:38:29.471Z,9.50
2023-05-21T01:40:59.198Z,9.68
2023-05-21T01:43:29.172Z,9.73
2023-05-21T01:45:57.266Z,9.68
2023-05-21T01:48:25.558Z,11.65
2023-05-21T01:50:55.324Z,11.18
2023-05-21T01:53:23.008Z,9.73
2023-05-21T01:55:50.551Z,8.55
2023-05-21T01:58:18.430Z,9.20
2023-05-21T02:00:46.586Z,11.02
2023-05-21T02:03:15.155Z,10.57
2023-05-21T02:05:42.436Z,9.07
2023-05-21T02:08:10.121Z,9.07
2023-05-21T02:10:37.865Z,9.15
2023-05-21T02:13:04.924Z,10.68
2023-05-21T02:15:34.530Z,9.30
2023-05-21T02:20:31.307Z,12.68
2023-05-21T02:22:58.224Z,10.95
2023-05-21T02:25:25.068Z,12.85
2023-05-21T02:27:53.698Z,10.85
2023-05-21T02:30:21.161Z,10.55
2023-05-21T02:32:48.784Z,9.73
2023-05-21T02:35:16.427Z,10.38
2023-05-21T02:37:46.596Z,11.02
2023-05-21T02:40:15.600Z,11.05
2023-05-21T02:42:43.093Z,9.45
2023-05-21T02:45:14.585Z,9.50
2023-05-21T02:47:43.896Z,9.00
2023-05-21T02:50:11.233Z,11.05
2023-05-21T02:52:44.916Z,9.48
2023-05-21T02:55:12.088Z,11.63
2023-05-21T02:57:39.616Z,9.35
2023-05-21T03:00:09.778Z,10.10
2023-05-21T03:02:37.659Z,9.95
2023-05-21T03:05:05.260Z,9.48
2023-05-21T03:07:34.035Z,10.27
2023-05-21T03:10:01.580Z,10.43
2023-05-21T03:12:28.961Z,11.48
2023-05-21T03:14:56.397Z,12.02
2023-05-21T03:17:23.895Z,9.93
2023-05-21T03:19:52.030Z,10.85
2023-05-21T03:22:20.036Z,12.77
2023-05-21T03:24:48.910Z,12.05
2023-05-21T03:27:16.816Z,11.13
2023-05-21T03:29:46.041Z,12.18
2023-05-21T03:32:14.116Z,11.75
2023-05-21T03:34:41.932Z,11.05
2023-05-21T03:37:09.952Z,9.60
2023-05-21T03:39:37.562Z,9.73
2023-05-21T03:42:06.058Z,8.98
2023-05-21T03:44:47.725Z,12.40
2023-05-21T03:47:39.227Z,10.50
2023-05-21T03:50:09.421Z,9.00
2023-05-21T03:52:37.104Z,10.45
2023-05-21T03:55:06.096Z,10.82
2023-05-21T03:57:33.175Z,10.65
2023-05-21T04:00:01.088Z,10.23
2023-05-21T04:02:28.747Z,9.30
2023-05-21T04:04:56.382Z,11.27
2023-05-21T04:07:25.161Z,9.07
2023-05-21T04:09:53.466Z,9.98
2023-05-21T04:12:20.432Z,9.50
2023-05-21T04:14:48.688Z,9.70
2023-05-21T04:17:16.022Z,10.65
2023-05-21T04:19:44.724Z,10.25
2023-05-21T04:22:12.253Z,10.00
2023-05-21T04:24:39.912Z,10.43
2023-05-21T04:27:14.209Z,9.93
2023-05-21T04:29:44.581Z,10.27
2023-05-21T04:32:15.142Z,9.13
2023-05-21T04:34:42.994Z,11.73
2023-05-21T04:37:10.373Z,9.48
2023-05-21T04:39:37.621Z,9.75
2023-05-21T04:42:05.450Z,11.05
2023-05-21T04:44:32.802Z,10.02
2023-05-21T04:47:02.262Z,10.10
2023-05-21T04:49:30.041Z,11.60
2023-05-21T04:51:57.228Z,12.30
2023-05-21T04:54:24.142Z,12.23
2023-05-21T04:56:51.057Z,11.23
2023-05-21T04:59:18.727Z,10.88
2023-05-21T05:01:47.640Z,10.18
2023-05-21T05:04:14.980Z,9.70
2023-05-21T05:06:42.399Z,11.00
2023-05-21T05:09:09.723Z,11.73
2023-05-21T05:11:36.608Z,11.07
2023-05-21T05:14:07.069Z,11.48
2023-05-21T05:16:35.567Z,12.30
2023-05-21T05:19:03.123Z,13.43
2023-05-21T05:21:33.202Z,12.05
2023-05-21T05:24:00.607Z,11.70
2023-05-21T05:26:30.313Z,10.95
2023-05-21T05:29:00.309Z,9.60
2023-05-21T05:34:01.322Z,10.55
2023-05-21T05:36:29.336Z,11.20
2023-05-21T05:38:56.655Z,10.13
2023-05-21T05:41:27.383Z,12.15
2023-05-21T05:43:56.316Z,11.70
2023-05-21T05:46:26.550Z,11.50
2023-05-21T05:48:53.861Z,11.40
2023-05-21T05:51:21.184Z,9.60
2023-05-21T05:53:48.455Z,10.45
2023-05-21T05:56:17.198Z,11.27
2023-05-21T05:58:48.632Z,11.27
2023-05-21T06:01:17.683Z,12.10
2023-05-21T06:03:44.969Z,10.60
2023-05-21T06:06:15.030Z,12.43
2023-05-21T06:08:42.050Z,12.27
2023-05-21T06:11:09.661Z,12.10
2023-05-21T06:13:37.064Z,12.35
2023-05-21T06:16:06.396Z,13.25
2023-05-21T06:18:33.660Z,11.85
2023-05-21T06:21:01.552Z,10.88
2023-05-21T06:23:29.059Z,14.02
2023-05-21T06:25:56.292Z,11.15
2023-05-21T06:28:24.051Z,11.52
2023-05-21T06:30:52.115Z,14.52
2023-05-21T06:33:20.222Z,10.70
2023-05-21T06:35:47.600Z,11.07
2023-05-21T06:38:15.665Z,9.95
2023-05-21T06:40:47.593Z,13.00
2023-05-21T06:43:22.647Z,11.88
2023-05-21T06:46:16.037Z,11.35
2023-05-21T06:48:46.410Z,11.55
2023-05-21T06:51:13.722Z,11.13
2023-05-21T06:53:41.008Z,9.80
2023-05-21T06:56:08.322Z,11.13
2023-05-21T06:58:37.581Z,14.73
2023-05-21T07:01:04.803Z,11.25
2023-05-21T07:03:32.502Z,13.35
2023-05-21T07:05:59.850Z,10.70
2023-05-21T07:08:27.235Z,11.38
2023-05-21T07:10:56.457Z,11.02
2023-05-21T07:13:23.751Z,11.35
2023-05-21T07:15:51.195Z,10.65
2023-05-21T07:18:18.689Z,13.65
2023-05-21T07:20:46.208Z,14.25
2023-05-21T07:25:49.440Z,12.48
2023-05-21T07:28:16.665Z,10.82
2023-05-21T07:30:44.856Z,10.00
2023-05-21T07:33:16.412Z,10.98
2023-05-21T07:35:44.794Z,11.57
2023-05-21T07:38:12.179Z,13.05
2023-05-21T07:40:39.468Z,13.88
2023-05-21T07:43:07.054Z,11.63
2023-05-21T07:45:36.093Z,12.18
2023-05-21T07:48:05.135Z,11.25
2023-05-21T07:50:34.585Z,11.57
2023-05-21T07:53:03.738Z,11.23
2023-05-21T07:55:52.367Z,14.05
2023-05-21T07:58:24.765Z,12.57
2023-05-21T08:00:53.731Z,12.32
2023-05-21T08:03:21.400Z,10.48
2023-05-21T08:05:51.076Z,13.27
2023-05-21T08:08:19.616Z,12.27
2023-05-21T08:10:47.930Z,11.95
2023-05-21T08:13:18.663Z,10.93
2023-05-21T08:15:47.760Z,11.35
2023-05-21T08:18:17.615Z,10.60
2023-05-21T08:20:46.586Z,12.35
2023-05-21T08:23:14.031Z,10.73
2023-05-21T08:25:51.236Z,14.68
2023-05-21T08:28:18.699Z,11.98
2023-05-21T08:30:46.157Z,12.25
2023-05-21T08:33:14.006Z,12.07
2023-05-21T08:35:42.533Z,11.65
2023-05-21T08:38:18.961Z,11.65
2023-05-21T08:40:56.620Z,10.65
2023-05-21T08:43:27.404Z,12.27
2023-05-21T08:45:56.202Z,11.32
2023-05-21T08:48:26.675Z,12.02
2023-05-21T08:50:55.054Z,11.07
2023-05-21T08:53:29.960Z,11.20
2023-05-21T08:55:58.630Z,10.90
2023-05-21T08:58:45.576Z,11.20
2023-05-21T09:01:13.536Z,10.65
2023-05-21T09:03:44.448Z,11.13
2023-05-21T09:06:14.268Z,13.02
2023-05-21T09:08:49.959Z,11.73
2023-05-21T09:11:32.245Z,10.93
2023-05-21T09:14:01.317Z,11.73
2023-05-21T09:16:48.838Z,11.23
2023-05-21T09:19:17.367Z,10.85
2023-05-21T09:21:45.515Z,11.32
2023-05-21T09:24:16.054Z,11.32
2023-05-21T09:26:44.523Z,13.80
2023-05-21T09:29:13.547Z,14.63
2023-05-21T09:31:46.890Z,11.60
2023-05-21T09:34:15.080Z,11.20
2023-05-21T09:36:47.058Z,11.43
2023-05-21T09:39:29.658Z,10.50
2023-05-21T09:41:58.805Z,10.63
2023-05-21T09:44:27.159Z,11.45
2023-05-21T09:47:01.216Z,10.90
2023-05-21T09:49:34.372Z,12.23
2023-05-21T09:52:04.393Z,11.73
2023-05-21T09:54:35.310Z,10.55
2023-05-21T09:57:02.977Z,9.93
2023-05-21T09:59:39.784Z,12.90
2023-05-21T10:02:21.022Z,10.60
2023-05-21T10:04:51.982Z,10.38
2023-05-21T10:07:26.996Z,12.65
2023-05-21T10:09:58.907Z,10.50
2023-05-21T10:12:27.656Z,10.48
2023-05-21T10:15:06.016Z,10.88
2023-05-21T10:17:36.248Z,10.93
2023-05-21T10:20:05.204Z,12.38
2023-05-21T10:22:32.449Z,11.98
2023-05-21T10:25:01.200Z,11.40
2023-05-21T10:27:33.492Z,11.82
2023-05-21T10:30:01.026Z,10.27
2023-05-21T10:32:28.524Z,10.45
2023-05-21T10:34:56.134Z,12.30
2023-05-21T10:37:27.552Z,10.23
2023-05-21T10:40:05.343Z,9.95
2023-05-21T10:42:32.666Z,11.50
2023-05-21T10:45:15.706Z,10.18
2023-05-21T10:47:45.977Z,11.13
2023-05-21T10:50:35.264Z,10.55
2023-05-21T10:53:11.255Z,9.85
2023-05-21T10:55:38.506Z,9.75
2023-05-21T10:58:32.497Z,9.75
2023-05-21T11:01:01.637Z,11.07
2023-05-21T11:05:57.915Z,10.18
2023-05-21T11:08:26.910Z,10.45
2023-05-21T11:10:54.863Z,10.32
2023-05-21T11:13:22.344Z,10.13
2023-05-21T11:15:58.361Z,10.40
2023-05-21T11:18:34.019Z,12.95
2023-05-21T11:21:11.472Z,11.07
2023-05-21T11:24:05.235Z,10.30
2023-05-21T11:26:50.445Z,11.95
2023-05-21T11:29:17.862Z,9.40
2023-05-21T11:32:02.625Z,10.80
2023-05-21T11:34:47.184Z,10.88
2023-05-21T11:37:28.925Z,11.35
2023-05-21T11:39:57.821Z,11.77
2023-05-21T11:42:31.708Z,12.25
2023-05-21T11:45:02.838Z,11.43
2023-05-21T11:47:30.165Z,10.43
2023-05-21T11:49:58.308Z,10.18
2023-05-21T11:52:26.789Z,12.38
2023-05-21T11:54:56.866Z,11.82
2023-05-21T11:57:32.936Z,9.52
2023-05-21T12:00:02.539Z,11.77
2023-05-21T12:02:40.524Z,10.75
2023-05-21T12:05:10.171Z,9.27
2023-05-21T12:07:38.540Z,10.57
2023-05-21T12:10:05.845Z,11.55
2023-05-21T12:12:42.209Z,10.40
2023-05-21T12:15:18.438Z,10.27
2023-05-21T12:17:49.292Z,9.85
2023-05-21T12:20:16.723Z,10.20
2023-05-21T12:22:44.932Z,11.02
2023-05-21T12:25:12.422Z,11.93
2023-05-21T12:27:47.384Z,11.10
2023-05-21T12:30:14.969Z,10.60
2023-05-21T12:32:44.518Z,11.50
2023-05-21T12:35:22.261Z,10.88
2023-05-21T12:37:50.719Z,10.48
2023-05-21T12:40:18.389Z,8.52
2023-05-21T12:42:45.720Z,9.93
2023-05-21T12:45:13.079Z,11.55
2023-05-21T12:47:40.210Z,11.60
2023-05-21T12:50:13.889Z,9.82
2023-05-21T12:52:43.128Z,9.15
2023-05-21T12:57:43.325Z,10.52
2023-05-21T13:00:11.312Z,12.23
2023-05-21T13:02:44.522Z,10.27
2023-05-21T13:05:17.564Z,10.63
2023-05-21T13:07:46.926Z,11.98
2023-05-21T13:10:16.608Z,10.77
2023-05-21T13:12:44.820Z,11.82
2023-05-21T13:15:12.389Z,12.15
2023-05-21T13:17:39.881Z,11.88
2023-05-21T13:20:08.629Z,10.43
2023-05-21T13:22:47.465Z,10.05
2023-05-21T13:25:28.503Z,11.18
2023-05-21T13:27:56.738Z,9.77
2023-05-21T13:30:24.014Z,9.25
2023-05-21T13:32:54.720Z,9.63
2023-05-21T13:35:22.246Z,8.95
2023-05-21T13:37:49.211Z,9.05
2023-05-21T13:40:16.969Z,10.98
2023-05-21T13:42:47.235Z,11.65
2023-05-21T13:45:18.999Z,9.85
2023-05-21T13:47:48.778Z,10.52
2023-05-21T13:50:17.468Z,9.63
2023-05-21T13:52:47.715Z,9.75
2023-05-21T13:55:16.244Z,9.68
2023-05-21T13:57:49.625Z,11.30
2023-05-21T14:00:17.721Z,10.57
2023-05-21T14:03:15.258Z,11.35
2023-05-21T14:05:43.491Z,12.43
2023-05-21T14:11:04.013Z,9.57
2023-05-21T14:13:36.102Z,10.02
2023-05-21T14:16:29.785Z,10.40
2023-05-21T14:19:31.699Z,11.95
2023-05-21T14:22:04.036Z,8.60
2023-05-21T14:24:31.451Z,13.18
2023-05-21T14:27:03.766Z,12.02
2023-05-21T14:29:33.287Z,10.30
2023-05-21T14:32:03.777Z,11.18
2023-05-21T14:34:35.250Z,11.40
2023-05-21T14:37:04.386Z,10.45
2023-05-21T14:39:32.644Z,11.23
2023-05-21T14:42:00.302Z,10.00
2023-05-21T14:44:27.862Z,9.18
2023-05-21T14:46:58.699Z,9.25
2023-05-21T14:49:26.644Z,9.63
2023-05-21T14:51:55.772Z,9.45
2023-05-21T14:54:23.581Z,11.25
2023-05-21T14:57:00.128Z,9.63
2023-05-21T14:59:30.566Z,10.88
2023-05-21T15:01:58.015Z,12.23
2023-05-21T15:04:25.694Z,11.02
2023-05-21T15:07:18.065Z,11.23
2023-05-21T15:09:45.601Z,10.43
2023-05-21T15:12:39.163Z,10.80
2023-05-21T15:15:07.452Z,12.05
2023-05-21T15:17:37.191Z,12.30
2023-05-21T15:20:11.559Z,12.38
2023-05-21T15:22:42.630Z,10.45
2023-05-21T15:25:15.690Z,14.20
2023-05-21T15:27:42.972Z,11.10
2023-05-21T15:30:10.370Z,11.60
2023-05-21T15:32:37.970Z,10.52
2023-05-21T15:35:08.028Z,12.38
2023-05-21T15:37:35.478Z,11.45
2023-05-21T15:40:02.978Z,11.90
2023-05-21T15:45:23.058Z,12.68
2023-05-21T15:47:50.567Z,11.95
2023-05-21T15:50:17.998Z,11.52
2023-05-21T15:52:45.281Z,13.55
2023-05-21T15:55:13.882Z,11.90
2023-05-21T15:57:41.377Z,13.45
2023-05-21T16:00:10.792Z,14.05
2023-05-21T16:02:37.799Z,15.70
2023-05-21T16:05:05.221Z,11.68
2023-05-21T16:07:32.778Z,12.02
2023-05-21T16:09:59.980Z,12.73
2023-05-21T16:12:27.179Z,11.25
2023-05-21T16:14:54.503Z,11.43
2023-05-21T16:17:21.661Z,12.25
2023-05-21T16:19:49.060Z,11.60
2023-05-21T16:22:17.444Z,13.25
2023-05-21T16:24:45.736Z,13.15
2023-05-21T16:27:16.223Z,15.35
2023-05-21T16:29:43.128Z,11.75
2023-05-21T16:32:10.722Z,11.23
2023-05-21T16:34:37.998Z,12.45
2023-05-21T16:37:05.783Z,11.88
2023-05-21T16:39:33.002Z,12.55
2023-05-21T16:42:01.243Z,10.70
2023-05-21T16:44:28.683Z,10.85
2023-05-21T16:46:56.919Z,12.18
2023-05-21T16:49:24.172Z,13.32
2023-05-21T16:51:51.579Z,13.52
2023-05-21T16:54:18.469Z,17.08
2023-05-21T16:56:45.563Z,13.02
2023-05-21T16:59:12.948Z,14.70
2023-05-21T17:01:40.084Z,12.40
2023-05-21T17:04:07.216Z,14.30
2023-05-21T17:06:35.109Z,15.00
2023-05-21T17:09:02.944Z,14.40
2023-05-21T17:11:31.032Z,14.43
2023-05-21T17:13:58.293Z,12.52
2023-05-21T17:16:25.707Z,14.55
2023-05-21T17:18:53.173Z,13.35
2023-05-21T17:21:20.740Z,14.20
2023-05-21T17:23:47.737Z,13.48
2023-05-21T17:26:15.234Z,14.55
2023-05-21T17:28:43.345Z,13.02
2023-05-21T17:31:10.763Z,14.18
2023-05-21T17:33:38.167Z,20.00
2023-05-21T17:36:05.913Z,15.15
2023-05-21T17:38:33.319Z,14.82
2023-05-21T17:41:00.510Z,15.93
2023-05-21T17:43:27.865Z,14.10
2023-05-21T17:45:56.538Z,14.65
2023-05-21T17:48:23.361Z,12.80
2023-05-21T17:50:51.026Z,14.93
2023-05-21T17:53:18.278Z,14.18
2023-05-21T17:55:45.743Z,15.63
2023-05-21T17:58:13.097Z,15.57
2023-05-21T18:00:42.680Z,14.90
2023-05-21T18:03:12.358Z,17.20
2023-05-21T18:05:39.827Z,16.83
2023-05-21T18:08:09.802Z,16.05
2023-05-21T18:13:04.255Z,15.63
2023-05-21T18:15:33.055Z,16.92
2023-05-21T18:18:00.492Z,18.08
2023-05-21T18:20:27.986Z,18.50
2023-05-21T18:22:55.238Z,16.20
2023-05-21T18:25:31.426Z,17.92
2023-05-21T18:27:59.694Z,16.10
2023-05-21T18:30:26.535Z,15.38
2023-05-21T18:32:55.164Z,16.88
2023-05-21T18:35:22.323Z,17.40
2023-05-21T18:37:49.641Z,19.13
2023-05-21T18:40:18.071Z,17.27
2023-05-21T18:42:45.389Z,18.33
2023-05-21T18:45:12.934Z,19.15
2023-05-21T18:47:43.550Z,16.73
2023-05-21T18:50:13.239Z,18.88
2023-05-21T18:52:40.559Z,15.43
2023-05-21T18:55:08.016Z,15.18
2023-05-21T18:57:35.265Z,16.67
2023-05-21T19:00:02.522Z,19.85
2023-05-21T19:02:31.460Z,17.85
2023-05-21T19:05:02.611Z,18.38
2023-05-21T19:07:30.388Z,19.10
2023-05-21T19:09:59.922Z,20.30
2023-05-21T19:12:29.258Z,21.40
2023-05-21T19:14:56.741Z,18.73
2023-05-21T19:17:26.080Z,16.65
2023-05-21T19:19:56.549Z,18.42
2023-05-21T19:22:24.576Z,20.08
2023-05-21T19:24:51.892Z,16.50
2023-05-21T19:27:18.715Z,21.45
2023-05-21T19:29:45.995Z,20.55
2023-05-21T19:32:15.395Z,19.92
2023-05-21T19:34:42.889Z,20.77
2023-05-21T19:37:12.601Z,20.17
2023-05-21T19:39:41.034Z,17.90
2023-05-21T19:42:09.599Z,18.73
2023-05-21T19:44:43.186Z,19.38
2023-05-21T19:47:10.435Z,18.80
2023-05-21T19:49:37.400Z,19.05
2023-05-21T19:52:08.325Z,21.38
2023-05-21T19:54:35.694Z,19.58
2023-05-21T19:57:03.471Z,19.65
2023-05-21T19:59:30.641Z,20.70
2023-05-21T20:01:57.907Z,21.45
2023-05-21T20:04:25.236Z,19.08
2023-05-21T20:06:52.588Z,17.85
2023-05-21T20:09:21.786Z,18.83
2023-05-21T20:11:48.739Z,19.63
2023-05-21T20:14:17.486Z,22.77
2023-05-21T20:16:47.388Z,21.33
2023-05-21T20:21:43.534Z,19.52
2023-05-21T20:24:11.335Z,19.13
2023-05-21T20:26:39.890Z,20.50
2023-05-21T20:29:08.127Z,18.52
2023-05-21T20:31:35.853Z,18.30
2023-05-21T20:34:07.482Z,20.05
2023-05-21T20:36:35.161Z,20.00
2023-05-21T20:39:02.730Z,21.23
2023-05-21T20:41:37.654Z,22.67
2023-05-21T20:44:06.207Z,19.05
2023-05-21T20:46:34.264Z,19.95
2023-05-21T20:49:01.571Z,18.40
2023-05-21T20:51:34.644Z,19.98
2023-05-21T20:54:01.932Z,19.20
2023-05-21T20:59:02.326Z,22.17
2023-05-21T21:01:31.041Z,20.58
2023-05-21T21:03:58.557Z,19.73
2023-05-21T21:06:26.284Z,21.92
2023-05-21T21:08:55.955Z,20.80
2023-05-21T21:11:24.050Z,20.85
2023-05-21T21:13:52.066Z,20.85
2023-05-21T21:16:19.340Z,19.45
2023-05-21T21:18:49.658Z,24.65
2023-05-21T21:21:17.202Z,22.83
2023-05-21T21:23:44.648Z,21.17
2023-05-21T21:26:18.410Z,26.30
2023-05-21T21:28:48.856Z,19.85
2023-05-21T21:31:20.248Z,22.90
2023-05-21T21:33:53.607Z,20.35
2023-05-21T21:36:20.873Z,21.42
2023-05-21T21:38:47.777Z,20.77
2023-05-21T21:41:17.285Z,22.33
2023-05-21T21:43:46.805Z,21.20
2023-05-21T21:46:14.574Z,25.52
2023-05-21T21:48:47.459Z,20.48
2023-05-21T21:51:15.588Z,23.67
2023-05-21T21:53:43.029Z,21.50
2023-05-21T21:56:12.271Z,23.65
2023-05-21T21:58:39.829Z,22.70
2023-05-21T22:01:07.574Z,22.08
2023-05-21T22:03:44.748Z,23.75
2023-05-21T22:06:11.980Z,19.85
2023-05-21T22:08:39.204Z,22.27
2023-05-21T22:11:06.565Z,23.50
2023-05-21T22:13:34.357Z,24.10
2023-05-21T22:16:02.084Z,28.40
2023-05-21T22:18:40.358Z,24.30
2023-05-21T22:21:14.164Z,25.88
2023-05-21T22:23:44.436Z,25.52
2023-05-21T22:26:11.728Z,23.33
2023-05-21T22:28:38.968Z,26.13
2023-05-21T22:31:06.134Z,23.83
2023-05-21T22:33:33.406Z,24.25
2023-05-21T22:36:00.324Z,25.10
2023-05-21T22:38:27.678Z,23.73
2023-05-21T22:40:54.925Z,24.15
2023-05-21T22:43:22.370Z,24.50
2023-05-21T22:45:49.778Z,26.17
2023-05-21T22:48:18.306Z,25.25
2023-05-21T22:50:46.222Z,24.17
2023-05-21T22:53:14.199Z,25.00
2023-05-21T22:55:41.460Z,23.25
2023-05-21T22:58:08.771Z,24.38
2023-05-21T23:00:36.010Z,27.67
2023-05-21T23:03:03.382Z,25.17
2023-05-21T23:05:30.823Z,25.20
2023-05-21T23:07:58.118Z,27.42
2023-05-21T23:10:25.397Z,26.35
2023-05-21T23:12:52.184Z,28.30
2023-05-21T23:15:19.522Z,25.13
2023-05-21T23:17:47.010Z,23.02
2023-05-21T23:20:15.399Z,26.88
2023-05-21T23:22:42.699Z,28.95
2023-05-21T23:25:09.916Z,26.13
2023-05-21T23:27:37.750Z,28.00
2023-05-21T23:30:05.217Z,26.33
2023-05-21T23:32:32.591Z,28.33
2023-05-21T23:34:59.824Z,27.33
2023-05-21T23:37:27.031Z,28.20
2023-05-21T23:39:54.207Z,26.55
2023-05-21T23:42:21.398Z,25.98
2023-05-21T23:44:48.534Z,27.02
2023-05-21T23:47:15.936Z,29.50
2023-05-21T23:49:42.750Z,27.63
2023-05-21T23:52:13.511Z,28.02
2023-05-21T23:54:41.567Z,26.77
2023-05-21T23:57:08.967Z,26.55
2023-05-21T23:59:36.202Z,27.33
